Time;durP1;ratioP1;P1;durP2;ratioP2;P2;SDS_P1;SDS_P2;PMS_P1;PMS_P2;Temp;Humidity;BMP_temperature;BMP_pressure;BME280_temperature;BME280_humidity;BME280_pressure;Samples;Min_cycle;Max_cycle;Signal;HPM_P1;HPM_P2
2020/12/25 00:01:29;;;;;;;1.70;1.38;;;1.80;99.90;;;;;;5004216;28;20291;-71
2020/12/25 00:03:56;;;;;;;1.52;1.10;;;1.90;99.90;;;;;;5003613;28;20229;-71
2020/12/25 00:06:23;;;;;;;1.23;1.00;;;1.90;99.90;;;;;;5004481;28;20252;-71
2020/12/25 00:08:50;;;;;;;1.10;0.90;;;1.90;99.90;;;;;;5004579;28;20253;-71
2020/12/25 00:11:16;;;;;;;1.00;0.90;;;2.00;99.90;;;;;;5003488;28;20253;-71
2020/12/25 00:13:45;;;;;;;1.13;1.02;;;2.00;99.90;;;;;;5003524;28;20226;-71
2020/12/25 00:16:12;;;;;;;1.10;1.00;;;2.00;99.90;;;;;;5003863;28;20288;-70
2020/12/25 00:18:38;;;;;;;1.27;1.17;;;2.00;99.90;;;;;;5003404;28;20214;-71
2020/12/25 00:21:04;;;;;;;1.30;1.20;;;2.00;99.90;;;;;;5003968;28;20226;-71
2020/12/25 00:23:32;;;;;;;1.30;1.10;;;2.00;99.90;;;;;;5003369;28;20226;-71
2020/12/25 00:25:58;;;;;;;1.20;1.10;;;1.90;99.90;;;;;;5004416;28;20280;-71
2020/12/25 00:28:24;;;;;;;1.00;0.90;;;2.00;99.90;;;;;;5006960;28;20674;-71
2020/12/25 00:30:50;;;;;;;0.95;0.82;;;1.90;99.90;;;;;;5008435;28;20202;-71
2020/12/25 00:33:17;;;;;;;1.10;1.00;;;1.90;99.90;;;;;;5007607;28;20288;-71
2020/12/25 00:35:43;;;;;;;1.10;1.00;;;1.90;99.90;;;;;;5008533;28;20367;-71
2020/12/25 00:38:09;;;;;;;0.90;0.80;;;1.90;99.90;;;;;;5007835;28;20202;-71
2020/12/25 00:40:41;;;;;;;1.23;1.13;;;1.90;99.90;;;;;;5007987;28;21094;-71
2020/12/25 00:43:07;;;;;;;1.10;1.00;;;1.90;99.90;;;;;;5007355;28;20268;-71
2020/12/25 00:45:35;;;;;;;1.63;1.00;;;1.90;99.90;;;;;;5008438;28;20345;-71
2020/12/25 00:48:01;;;;;;;1.00;0.90;;;1.80;99.90;;;;;;5007925;28;20228;-71
2020/12/25 00:50:27;;;;;;;1.02;0.90;;;1.90;99.90;;;;;;5008271;28;20241;-71
2020/12/25 00:52:54;;;;;;;1.02;0.93;;;1.90;99.90;;;;;;5007748;28;20222;-71
2020/12/25 00:55:20;;;;;;;1.67;1.25;;;1.90;99.90;;;;;;5007442;28;20621;-71
2020/12/25 00:57:47;;;;;;;1.00;0.90;;;1.90;99.90;;;;;;5007760;28;20210;-71
2020/12/25 01:00:13;;;;;;;1.10;1.00;;;1.90;99.90;;;;;;5007095;28;20206;-71
2020/12/25 01:02:39;;;;;;;1.27;1.02;;;1.90;99.90;;;;;;5006141;28;20261;-70
2020/12/25 01:05:05;;;;;;;1.10;1.00;;;2.00;99.90;;;;;;5007204;28;20210;-71
2020/12/25 01:07:31;;;;;;;1.00;0.90;;;2.00;99.90;;;;;;5006775;28;20670;-71
2020/12/25 01:09:58;;;;;;;0.80;0.80;;;1.90;99.90;;;;;;5006904;28;20202;-71
2020/12/25 01:12:24;;;;;;;1.20;1.10;;;1.90;99.90;;;;;;5006914;28;20894;-71
2020/12/25 01:14:51;;;;;;;1.42;1.20;;;1.90;99.90;;;;;;5007621;28;20210;-72
2020/12/25 01:17:17;;;;;;;1.08;0.98;;;1.90;99.90;;;;;;5007205;28;20236;-72
2020/12/25 01:19:43;;;;;;;1.20;1.00;;;1.90;99.90;;;;;;5006682;28;20202;-71
2020/12/25 01:22:09;;;;;;;1.58;1.05;;;1.90;99.90;;;;;;5005855;28;20750;-71
2020/12/25 01:24:36;;;;;;;1.10;1.00;;;1.90;99.90;;;;;;5006814;28;20265;-71
2020/12/25 01:27:02;;;;;;;1.17;1.08;;;1.90;99.90;;;;;;5006871;28;20206;-72
2020/12/25 01:29:28;;;;;;;1.27;1.17;;;2.00;99.90;;;;;;5007432;28;20214;-72
2020/12/25 01:31:55;;;;;;;1.55;1.30;;;2.00;99.90;;;;;;5005946;28;20215;-71
2020/12/25 01:34:21;;;;;;;1.20;1.10;;;2.00;99.90;;;;;;5006807;28;20230;-72
2020/12/25 01:36:47;;;;;;;1.35;1.25;;;2.00;99.90;;;;;;5006904;28;20718;-73
2020/12/25 01:39:13;;;;;;;1.90;1.40;;;2.00;99.90;;;;;;5006418;28;20215;-72
2020/12/25 01:41:40;;;;;;;1.83;1.40;;;2.10;99.90;;;;;;5007563;28;20230;-70
2020/12/25 01:44:06;;;;;;;1.58;1.48;;;2.10;99.90;;;;;;5007200;28;20230;-72
2020/12/25 01:46:33;;;;;;;1.65;1.55;;;2.10;99.90;;;;;;5007363;28;20211;-71
2020/12/25 01:49:00;;;;;;;1.90;1.80;;;2.10;99.90;;;;;;5008250;28;20202;-74
2020/12/25 01:51:26;;;;;;;2.30;1.80;;;2.10;99.90;;;;;;5008833;28;20202;-74
2020/12/25 01:53:53;;;;;;;1.92;1.83;;;2.10;99.90;;;;;;5008884;28;20233;-74
2020/12/25 01:56:19;;;;;;;1.83;1.50;;;2.10;99.90;;;;;;5009449;28;20718;-74
2020/12/25 01:58:45;;;;;;;3.28;2.53;;;2.20;99.90;;;;;;5009734;28;20701;-73
2020/12/25 02:01:12;;;;;;;3.15;2.85;;;2.20;99.90;;;;;;5008807;28;20218;-74
2020/12/25 02:03:38;;;;;;;2.55;2.00;;;2.20;99.90;;;;;;5009204;28;20222;-74
2020/12/25 02:06:05;;;;;;;2.20;2.00;;;2.20;99.90;;;;;;5009350;28;20349;-74
2020/12/25 02:08:31;;;;;;;3.17;2.58;;;2.20;99.90;;;;;;5009383;28;20210;-74
2020/12/25 02:10:58;;;;;;;3.15;2.90;;;2.20;99.90;;;;;;5009420;28;20571;-74
2020/12/25 02:13:25;;;;;;;2.63;2.20;;;2.20;99.90;;;;;;5008605;28;20222;-73
2020/12/25 02:15:52;;;;;;;3.13;2.83;;;2.20;99.90;;;;;;5009078;28;20728;-73
2020/12/25 02:18:18;;;;;;;2.80;2.35;;;2.20;99.90;;;;;;5008470;28;20221;-74
2020/12/25 02:20:44;;;;;;;3.60;2.53;;;2.20;99.90;;;;;;5008689;28;20206;-74
2020/12/25 02:23:11;;;;;;;3.03;2.72;;;2.20;99.90;;;;;;5006698;28;20331;-73
2020/12/25 02:25:37;;;;;;;4.93;2.75;;;2.20;99.90;;;;;;5008921;28;20205;-74
2020/12/25 02:28:04;;;;;;;3.38;2.80;;;2.30;99.90;;;;;;5008894;28;20720;-74
2020/12/25 02:30:30;;;;;;;4.30;2.78;;;2.30;99.90;;;;;;5009042;28;20215;-74
2020/12/25 02:32:56;;;;;;;3.40;2.78;;;2.20;99.90;;;;;;5008850;28;20230;-74
2020/12/25 02:35:22;;;;;;;4.35;2.90;;;2.20;99.90;;;;;;5009045;28;20206;-74
2020/12/25 02:37:48;;;;;;;4.78;2.85;;;2.10;99.90;;;;;;5009362;28;20685;-74
2020/12/25 02:40:15;;;;;;;3.15;2.58;;;2.10;99.90;;;;;;5008726;28;20227;-74
2020/12/25 02:42:43;;;;;;;3.40;2.42;;;2.10;99.90;;;;;;5008113;28;20223;-74
2020/12/25 02:45:09;;;;;;;2.92;2.72;;;2.10;99.90;;;;;;5008863;28;20210;-74
2020/12/25 02:47:35;;;;;;;4.93;3.00;;;2.20;99.90;;;;;;5007811;28;20269;-74
2020/12/25 02:50:02;;;;;;;3.03;2.75;;;2.20;99.90;;;;;;5005130;28;20207;-74
2020/12/25 02:52:28;;;;;;;3.13;2.83;;;2.20;99.90;;;;;;5008286;28;20206;-74
2020/12/25 02:54:54;;;;;;;4.15;2.58;;;2.20;99.90;;;;;;5008375;28;20272;-74
2020/12/25 02:57:22;;;;;;;5.03;3.10;;;2.20;99.90;;;;;;5008886;28;20213;-74
2020/12/25 02:59:48;;;;;;;3.88;2.83;;;2.30;99.90;;;;;;5008525;28;20206;-74
2020/12/25 03:02:15;;;;;;;3.20;2.63;;;2.30;99.90;;;;;;5007879;28;20226;-74
2020/12/25 03:04:41;;;;;;;3.17;2.83;;;2.20;99.90;;;;;;5008848;28;20249;-74
2020/12/25 03:07:08;;;;;;;3.55;2.95;;;2.20;99.90;;;;;;5008933;28;20256;-74
2020/12/25 03:09:34;;;;;;;4.28;3.00;;;2.20;99.90;;;;;;5008265;28;20261;-74
2020/12/25 03:12:00;;;;;;;2.90;2.70;;;2.20;99.90;;;;;;5007725;28;20839;-74
2020/12/25 03:14:27;;;;;;;2.70;2.47;;;2.20;99.90;;;;;;5008277;28;20222;-74
2020/12/25 03:16:53;;;;;;;3.00;2.70;;;2.30;99.90;;;;;;5008267;28;20214;-74
2020/12/25 03:19:19;;;;;;;3.35;2.88;;;2.30;99.90;;;;;;5008200;28;20205;-75
2020/12/25 03:21:46;;;;;;;2.90;2.70;;;2.30;99.90;;;;;;5068206;23;20222;-76
2020/12/25 03:24:12;;;;;;;3.10;2.80;;;2.30;99.90;;;;;;5007803;28;20736;-77
2020/12/25 03:26:38;;;;;;;3.20;2.35;;;2.30;99.90;;;;;;5008064;28;20253;-76
2020/12/25 03:29:04;;;;;;;4.20;3.30;;;2.30;99.90;;;;;;5008250;28;20782;-76
2020/12/25 03:31:31;;;;;;;3.00;2.70;;;2.30;99.90;;;;;;5007609;28;20210;-76
2020/12/25 03:33:58;;;;;;;5.53;3.42;;;2.30;99.90;;;;;;5011722;28;20222;-78
2020/12/25 03:36:24;;;;;;;3.45;2.67;;;2.30;99.90;;;;;;5012661;28;20681;-76
2020/12/25 03:38:50;;;;;;;4.90;2.92;;;2.40;99.90;;;;;;5012517;28;20206;-78
2020/12/25 03:41:17;;;;;;;3.30;3.00;;;2.30;99.90;;;;;;5012413;28;20206;-78
2020/12/25 03:43:43;;;;;;;2.90;2.60;;;2.30;99.90;;;;;;5011503;28;20234;-77
2020/12/25 03:46:09;;;;;;;3.55;2.97;;;2.40;99.90;;;;;;5012232;28;20209;-78
2020/12/25 03:48:36;;;;;;;3.78;3.08;;;2.30;99.90;;;;;;5011894;28;20202;-76
2020/12/25 03:51:02;;;;;;;4.32;3.00;;;2.30;99.90;;;;;;5011502;28;20586;-78
2020/12/25 03:53:28;;;;;;;3.50;3.20;;;2.40;99.90;;;;;;5010169;28;20230;-78
2020/12/25 03:55:55;;;;;;;3.28;2.90;;;2.40;99.90;;;;;;5011558;28;20670;-78
2020/12/25 03:58:21;;;;;;;5.38;3.65;;;2.40;99.90;;;;;;5011762;28;20207;-78
2020/12/25 04:00:47;;;;;;;5.55;3.35;;;2.40;99.90;;;;;;5011856;28;20206;-78
2020/12/25 04:03:13;;;;;;;3.15;2.85;;;2.40;99.90;;;;;;5009966;28;20245;-76
2020/12/25 04:05:40;;;;;;;5.05;2.80;;;2.40;99.90;;;;;;5011425;28;20213;-79
2020/12/25 04:08:07;;;;;;;4.22;3.83;;;2.40;99.90;;;;;;5010402;28;20226;-78
2020/12/25 04:10:33;;;;;;;3.25;2.95;;;2.40;99.90;;;;;;5010388;28;20202;-77
2020/12/25 04:13:00;;;;;;;4.85;3.10;;;2.40;99.90;;;;;;5010058;28;20222;-78
2020/12/25 04:15:26;;;;;;;4.95;2.80;;;2.40;99.90;;;;;;5009617;28;20213;-78
2020/12/25 04:17:53;;;;;;;3.75;2.90;;;2.50;99.90;;;;;;5010141;28;20203;-78
2020/12/25 04:20:19;;;;;;;3.50;3.10;;;2.50;99.90;;;;;;5009463;28;20214;-78
2020/12/25 04:22:46;;;;;;;3.05;2.83;;;2.50;99.90;;;;;;5009319;28;20230;-77
2020/12/25 04:25:12;;;;;;;2.92;2.72;;;2.40;99.90;;;;;;5009419;28;20581;-77
2020/12/25 04:27:38;;;;;;;3.90;3.20;;;2.40;99.90;;;;;;5008988;28;20206;-77
2020/12/25 04:30:05;;;;;;;2.95;2.72;;;2.40;99.90;;;;;;5009405;28;20557;-76
2020/12/25 04:32:31;;;;;;;3.38;3.08;;;2.40;99.90;;;;;;5008553;28;20203;-77
2020/12/25 04:34:57;;;;;;;2.95;2.70;;;2.40;99.90;;;;;;5008806;28;20206;-77
2020/12/25 04:37:25;;;;;;;2.85;2.55;;;2.40;99.90;;;;;;5009098;28;20206;-77
2020/12/25 04:39:53;;;;;;;3.05;2.80;;;2.40;99.90;;;;;;5008998;28;20257;-78
2020/12/25 04:42:19;;;;;;;2.75;2.55;;;2.40;99.90;;;;;;5009213;28;20218;-77
2020/12/25 04:44:46;;;;;;;2.92;2.70;;;2.40;99.90;;;;;;5008681;28;20233;-78
2020/12/25 04:47:12;;;;;;;3.17;2.70;;;2.40;99.90;;;;;;5009194;28;20210;-77
2020/12/25 04:49:39;;;;;;;3.25;2.90;;;2.30;99.90;;;;;;5009182;28;20746;-78
2020/12/25 04:52:06;;;;;;;3.45;3.15;;;2.30;99.90;;;;;;5008207;28;20209;-76
2020/12/25 04:54:32;;;;;;;3.20;2.90;;;2.40;99.90;;;;;;5008858;28;20230;-76
2020/12/25 04:56:59;;;;;;;2.78;2.58;;;2.40;99.90;;;;;;5008854;28;20214;-77
2020/12/25 04:59:29;;;;;;;2.67;2.47;;;2.40;99.90;;;;;;5008756;28;20229;-76
2020/12/25 05:01:56;;;;;;;3.10;2.80;;;2.30;99.90;;;;;;5008957;28;20250;-78
2020/12/25 05:04:24;;;;;;;3.08;2.78;;;2.30;99.90;;;;;;5008379;28;20219;-76
2020/12/25 05:06:51;;;;;;;3.35;3.05;;;2.30;99.90;;;;;;5008371;28;20276;-75
2020/12/25 05:09:20;;;;;;;3.47;3.00;;;2.40;99.90;;;;;;5009659;28;20210;-77
2020/12/25 05:11:50;;;;;;;3.70;3.10;;;2.40;99.90;;;;;;5009254;28;20207;-76
2020/12/25 05:14:19;;;;;;;3.22;2.85;;;2.40;99.90;;;;;;5009381;28;20222;-76
2020/12/25 05:16:47;;;;;;;3.55;3.15;;;2.40;99.90;;;;;;5012073;28;20199;-77
2020/12/25 05:19:14;;;;;;;3.15;2.83;;;2.40;99.90;;;;;;5012050;28;20670;-77
2020/12/25 05:21:40;;;;;;;2.90;2.60;;;2.40;99.90;;;;;;5011326;28;20223;-77
2020/12/25 05:24:07;;;;;;;2.97;2.70;;;2.40;99.90;;;;;;5012629;28;20568;-77
2020/12/25 05:26:34;;;;;;;3.22;2.92;;;2.40;99.90;;;;;;5012289;28;20666;-76
2020/12/25 05:29:00;;;;;;;3.35;3.05;;;2.40;99.90;;;;;;5012498;28;20206;-76
2020/12/25 05:31:28;;;;;;;5.00;3.55;;;2.40;99.90;;;;;;5012181;28;20198;-77
2020/12/25 05:33:57;;;;;;;3.45;3.15;;;2.30;99.90;;;;;;5012882;28;20226;-77
2020/12/25 05:36:29;;;;;;;2.92;2.63;;;2.30;99.90;;;;;;5014182;28;20241;-77
2020/12/25 05:38:56;;;;;;;3.22;2.85;;;2.30;99.90;;;;;;5014352;28;20194;-77
2020/12/25 05:41:24;;;;;;;4.53;3.03;;;2.30;99.90;;;;;;5013643;28;20242;-77
2020/12/25 05:43:52;;;;;;;2.92;2.63;;;2.30;99.90;;;;;;5011880;28;20241;-77
2020/12/25 05:46:19;;;;;;;2.75;2.55;;;2.40;99.90;;;;;;5013552;28;20211;-76
2020/12/25 05:48:50;;;;;;;2.80;2.60;;;2.40;99.90;;;;;;5013050;28;20210;-76
2020/12/25 05:51:16;;;;;;;3.30;3.00;;;2.30;99.90;;;;;;5012587;28;20198;-77
2020/12/25 05:53:44;;;;;;;3.38;3.03;;;2.30;99.90;;;;;;5012400;28;20630;-77
2020/12/25 05:56:13;;;;;;;3.40;3.10;;;2.30;99.90;;;;;;5012715;28;20225;-78
2020/12/25 05:58:44;;;;;;;3.40;3.10;;;2.30;99.90;;;;;;5012879;28;20206;-77
2020/12/25 06:01:11;;;;;;;3.72;3.30;;;2.30;99.90;;;;;;5012483;28;20225;-76
2020/12/25 06:03:37;;;;;;;3.22;2.92;;;2.30;99.90;;;;;;5011919;28;20237;-77
2020/12/25 06:06:11;;;;;;;3.58;3.28;;;2.30;99.90;;;;;;5011783;28;20233;-77
2020/12/25 06:08:46;;;;;;;3.97;3.15;;;2.30;99.90;;;;;;5011530;28;20217;-77
2020/12/25 06:11:15;;;;;;;3.42;3.13;;;2.30;99.90;;;;;;5011225;28;20574;-77
2020/12/25 06:13:43;;;;;;;3.47;3.17;;;2.30;99.90;;;;;;5010858;28;20546;-76
2020/12/25 06:16:12;;;;;;;3.60;3.30;;;2.30;99.90;;;;;;5011534;28;20203;-77
2020/12/25 06:18:48;;;;;;;4.20;3.58;;;2.30;99.90;;;;;;5011726;28;20260;-76
2020/12/25 06:21:22;;;;;;;4.95;3.70;;;2.20;99.90;;;;;;5011060;28;20218;-77
2020/12/25 06:23:49;;;;;;;4.80;4.40;;;2.20;99.90;;;;;;5011325;28;20233;-78
2020/12/25 06:26:18;;;;;;;5.90;4.75;;;2.20;99.90;;;;;;5010660;28;20225;-77
2020/12/25 06:28:44;;;;;;;5.05;4.57;;;2.20;99.90;;;;;;5011468;28;20257;-77
2020/12/25 06:31:35;;;;;;;5.03;4.60;;;2.20;99.90;;;;;;5011240;28;20249;-77
2020/12/25 06:34:02;;;;;;;5.22;4.47;;;2.20;99.90;;;;;;5011803;28;20222;-78
2020/12/25 06:36:30;;;;;;;5.47;4.55;;;2.10;99.90;;;;;;5009980;28;20634;-74
2020/12/25 06:38:57;;;;;;;4.40;4.00;;;2.10;99.90;;;;;;5010657;28;20268;-74
2020/12/25 06:41:25;;;;;;;9.25;5.00;;;2.20;99.90;;;;;;5009894;28;20218;-75
2020/12/25 06:43:54;;;;;;;5.93;5.25;;;2.30;99.90;;;;;;5008464;28;20222;-74
2020/12/25 06:46:28;;;;;;;7.05;4.63;;;2.40;99.90;;;;;;5009826;28;20214;-77
2020/12/25 06:48:54;;;;;;;6.60;4.50;;;2.50;99.90;;;;;;5009638;28;20634;-74
2020/12/25 06:51:22;;;;;;;4.88;4.40;;;2.50;99.90;;;;;;5009364;28;20741;-75
2020/12/25 06:53:49;;;;;;;5.70;4.30;;;2.50;99.90;;;;;;5009449;28;20226;-75
2020/12/25 06:56:17;;;;;;;6.00;4.90;;;2.40;99.90;;;;;;5009537;28;20207;-75
2020/12/25 06:58:45;;;;;;;4.22;3.83;;;2.30;99.90;;;;;;5009770;28;20206;-75
2020/12/25 07:01:13;;;;;;;4.43;3.95;;;2.30;99.90;;;;;;5009532;28;20244;-74
2020/12/25 07:03:40;;;;;;;4.05;3.65;;;2.30;99.90;;;;;;5009298;28;20253;-75
2020/12/25 07:06:09;;;;;;;4.40;4.00;;;2.30;99.90;;;;;;5009809;28;20198;-76
2020/12/25 07:08:44;;;;;;;3.90;3.60;;;2.30;99.90;;;;;;5009514;28;20202;-74
2020/12/25 07:11:12;;;;;;;3.45;3.15;;;2.30;99.90;;;;;;4989741;28;20206;-73
2020/12/25 07:13:39;;;;;;;4.13;3.65;;;2.20;99.90;;;;;;4988948;28;20219;-74
2020/12/25 07:16:06;;;;;;;3.58;3.28;;;2.20;99.90;;;;;;4989992;28;20208;-74
2020/12/25 07:18:32;;;;;;;3.58;3.25;;;2.10;99.90;;;;;;4989993;28;20210;-74
2020/12/25 07:21:00;;;;;;;3.95;3.55;;;2.10;99.90;;;;;;4989536;28;20211;-74
2020/12/25 07:23:26;;;;;;;2.92;2.70;;;2.10;99.90;;;;;;4988928;28;20223;-75
2020/12/25 07:25:57;;;;;;;3.22;2.90;;;2.10;99.90;;;;;;4990059;28;20211;-75
2020/12/25 07:28:25;;;;;;;2.95;2.75;;;2.10;99.90;;;;;;4989480;28;20249;-74
2020/12/25 07:30:53;;;;;;;2.90;2.55;;;2.10;99.90;;;;;;4990166;28;20583;-73
2020/12/25 07:33:20;;;;;;;2.65;2.45;;;2.10;99.90;;;;;;4989290;28;20277;-77
2020/12/25 07:35:46;;;;;;;3.40;2.80;;;2.10;99.90;;;;;;4990145;28;20207;-76
2020/12/25 07:38:14;;;;;;;2.88;2.65;;;2.00;99.90;;;;;;4989502;28;20257;-75
2020/12/25 07:40:41;;;;;;;3.10;2.80;;;2.00;99.90;;;;;;4990182;28;20218;-75
2020/12/25 07:43:07;;;;;;;3.83;3.50;;;2.00;99.90;;;;;;4989060;28;20231;-74
2020/12/25 07:45:35;;;;;;;3.13;2.70;;;2.00;99.90;;;;;;4989071;28;20207;-75
2020/12/25 07:48:03;;;;;;;2.97;2.70;;;2.00;99.90;;;;;;4989393;28;20705;-75
2020/12/25 07:50:34;;;;;;;2.40;2.20;;;2.00;99.90;;;;;;4989821;28;20253;-76
2020/12/25 07:53:00;;;;;;;2.70;2.50;;;2.00;99.90;;;;;;4989783;28;20227;-73
2020/12/25 07:55:28;;;;;;;3.20;2.90;;;1.90;99.90;;;;;;4989911;28;20211;-74
2020/12/25 07:57:54;;;;;;;3.25;3.00;;;1.90;99.90;;;;;;4989502;28;20207;-75
2020/12/25 08:00:21;;;;;;;2.90;2.70;;;1.90;99.90;;;;;;4989291;28;20218;-74
2020/12/25 08:02:48;;;;;;;3.42;3.13;;;1.90;99.90;;;;;;4988593;28;20226;-76
2020/12/25 08:05:14;;;;;;;3.30;3.00;;;1.90;99.90;;;;;;4989095;28;20641;-75
2020/12/25 08:07:42;;;;;;;3.13;2.70;;;1.90;99.90;;;;;;4990023;28;20217;-76
2020/12/25 08:10:12;;;;;;;2.95;2.75;;;1.90;99.90;;;;;;4990417;28;20670;-73
2020/12/25 08:12:43;;;;;;;3.35;3.05;;;1.90;99.90;;;;;;4990238;28;20210;-76
2020/12/25 08:15:09;;;;;;;3.00;2.70;;;2.00;99.90;;;;;;4989305;28;20203;-75
2020/12/25 08:17:35;;;;;;;3.83;3.47;;;2.00;99.90;;;;;;4989986;28;20203;-74
2020/12/25 08:20:04;;;;;;;3.42;3.13;;;2.00;99.90;;;;;;4989360;28;20203;-75
2020/12/25 08:22:30;;;;;;;3.55;3.25;;;2.00;99.90;;;;;;4988998;28;20223;-74
2020/12/25 08:24:57;;;;;;;3.28;3.00;;;2.10;99.90;;;;;;4990290;28;20320;-75
2020/12/25 08:27:24;;;;;;;3.50;3.20;;;2.00;99.90;;;;;;4989577;28;20269;-73
2020/12/25 08:29:50;;;;;;;4.15;3.63;;;2.00;99.90;;;;;;4988910;28;20195;-74
2020/12/25 08:32:17;;;;;;;3.80;3.50;;;2.00;99.90;;;;;;4987658;28;20195;-74
2020/12/25 08:34:43;;;;;;;3.58;3.28;;;2.00;99.90;;;;;;4988844;28;20587;-74
2020/12/25 08:37:13;;;;;;;5.78;4.57;;;2.00;99.90;;;;;;4992732;28;20241;-74
2020/12/25 08:39:40;;;;;;;4.75;4.22;;;2.00;99.90;;;;;;4989124;28;20260;-73
2020/12/25 08:42:09;;;;;;;5.63;5.05;;;2.00;99.90;;;;;;4995669;28;20276;-75
2020/12/25 08:44:39;;;;;;;4.85;4.32;;;2.00;99.90;;;;;;4993201;28;20226;-74
2020/12/25 08:47:09;;;;;;;6.07;5.32;;;2.00;99.90;;;;;;4989314;28;20223;-78
2020/12/25 08:49:36;;;;;;;5.47;4.90;;;2.00;99.90;;;;;;4991897;28;20199;-75
2020/12/25 08:52:03;;;;;;;6.13;5.03;;;2.00;99.90;;;;;;4990692;28;20285;-73
2020/12/25 08:54:30;;;;;;;8.13;6.03;;;2.10;99.90;;;;;;4991872;28;20242;-75
2020/12/25 08:56:57;;;;;;;10.73;6.90;;;2.20;99.90;;;;;;4991951;28;20210;-73
2020/12/25 08:59:24;;;;;;;8.68;6.82;;;2.20;99.90;;;;;;4991320;28;20592;-74
2020/12/25 09:01:51;;;;;;;9.00;6.70;;;2.20;99.90;;;;;;4992065;28;20196;-75
2020/12/25 09:04:19;;;;;;;10.25;7.38;;;2.30;99.90;;;;;;4992172;28;20219;-74
2020/12/25 09:06:49;;;;;;;9.02;6.78;;;2.30;99.90;;;;;;4992625;28;20612;-75
2020/12/25 09:09:19;;;;;;;8.05;7.07;;;2.30;99.90;;;;;;4992214;28;20674;-76
2020/12/25 09:11:46;;;;;;;7.82;7.03;;;2.30;99.90;;;;;;4991167;28;20222;-75
2020/12/25 09:14:12;;;;;;;12.85;6.75;;;2.40;99.90;;;;;;4992085;28;20772;-75
2020/12/25 09:16:39;;;;;;;7.50;6.50;;;2.40;99.90;;;;;;4992385;28;20210;-75
2020/12/25 09:19:08;;;;;;;6.90;6.13;;;2.30;99.90;;;;;;4992030;28;20210;-74
2020/12/25 09:21:37;;;;;;;6.93;6.13;;;2.40;99.90;;;;;;4991304;28;20199;-74
2020/12/25 09:24:03;;;;;;;7.97;6.60;;;2.40;99.90;;;;;;4994989;28;20234;-75
2020/12/25 09:26:29;;;;;;;7.60;6.07;;;2.40;99.90;;;;;;4991044;28;21465;-72
2020/12/25 09:28:58;;;;;;;8.02;6.55;;;2.50;99.90;;;;;;4992062;28;20195;-73
2020/12/25 09:31:27;;;;;;;9.13;7.40;;;2.50;99.90;;;;;;4991054;28;20206;-73
2020/12/25 09:33:55;;;;;;;7.90;6.05;;;2.60;99.90;;;;;;4990778;28;20222;-72
2020/12/25 09:36:21;;;;;;;8.55;6.70;;;2.60;99.90;;;;;;4995699;28;20248;-72
2020/12/25 09:38:48;;;;;;;7.78;6.28;;;2.60;99.90;;;;;;4997525;28;20202;-73
2020/12/25 09:41:14;;;;;;;9.00;7.20;;;2.70;99.90;;;;;;4994097;28;20663;-73
2020/12/25 09:43:41;;;;;;;8.70;6.25;;;2.70;99.90;;;;;;4990786;28;20617;-73
2020/12/25 09:46:08;;;;;;;9.15;6.82;;;2.70;99.90;;;;;;4991966;28;20407;-74
2020/12/25 09:48:35;;;;;;;9.50;6.40;;;2.70;99.90;;;;;;4991514;28;20580;-75
2020/12/25 09:51:02;;;;;;;8.05;6.38;;;2.70;99.90;;;;;;4991410;28;20210;-74
2020/12/25 09:53:28;;;;;;;8.93;6.47;;;2.70;99.90;;;;;;5003748;28;20234;-72
2020/12/25 09:55:54;;;;;;;11.10;7.38;;;2.70;99.90;;;;;;5001767;28;20202;-73
2020/12/25 09:58:23;;;;;;;7.80;6.43;;;2.70;99.90;;;;;;5002325;28;20229;-74
2020/12/25 10:00:51;;;;;;;7.40;6.20;;;2.60;99.90;;;;;;4995575;28;20202;-76
2020/12/25 10:03:18;;;;;;;9.57;6.82;;;2.60;99.90;;;;;;4987591;28;20239;-74
2020/12/25 10:05:44;;;;;;;7.47;6.53;;;2.70;99.90;;;;;;4990656;28;20210;-75
2020/12/25 10:08:10;;;;;;;9.00;7.20;;;2.70;99.90;;;;;;4990012;28;20298;-75
2020/12/25 10:10:36;;;;;;;7.10;6.40;;;2.70;99.90;;;;;;4989339;28;20214;-75
2020/12/25 10:13:02;;;;;;;7.20;5.72;;;2.70;99.90;;;;;;4989029;28;20749;-76
2020/12/25 10:15:29;;;;;;;7.18;6.00;;;2.70;99.90;;;;;;4989463;28;20589;-76
2020/12/25 10:17:55;;;;;;;9.68;6.28;;;2.80;99.90;;;;;;4989357;28;20210;-76
2020/12/25 10:20:22;;;;;;;9.77;6.57;;;3.00;99.90;;;;;;4989419;28;20203;-75
2020/12/25 10:22:48;;;;;;;7.90;6.30;;;3.10;99.90;;;;;;4988974;28;20242;-74
2020/12/25 10:25:14;;;;;;;8.13;7.00;;;3.20;99.90;;;;;;4989903;28;20195;-75
2020/12/25 10:27:41;;;;;;;6.60;5.90;;;3.40;99.90;;;;;;4989095;28;20203;-74
2020/12/25 10:30:07;;;;;;;8.43;5.85;;;3.60;99.90;;;;;;4989697;28;20211;-76
2020/12/25 10:32:33;;;;;;;8.95;6.60;;;3.90;99.90;;;;;;4988141;28;20207;-75
2020/12/25 10:35:00;;;;;;;7.55;6.63;;;4.10;99.90;;;;;;4989156;28;20203;-76
2020/12/25 10:37:27;;;;;;;6.60;5.90;;;4.20;99.90;;;;;;4988494;28;20207;-76
2020/12/25 10:39:53;;;;;;;7.22;5.40;;;4.00;99.90;;;;;;4988330;28;20210;-74
2020/12/25 10:42:19;;;;;;;6.63;5.30;;;3.90;99.90;;;;;;4988975;28;20219;-76
2020/12/25 10:44:45;;;;;;;8.75;5.82;;;3.80;99.90;;;;;;4988742;28;20227;-76
2020/12/25 10:47:12;;;;;;;6.65;5.40;;;3.70;99.90;;;;;;4988730;28;20695;-75
2020/12/25 10:49:39;;;;;;;7.25;5.30;;;3.60;99.90;;;;;;4989566;28;20282;-75
2020/12/25 10:52:06;;;;;;;6.05;4.75;;;3.60;99.90;;;;;;4987962;28;20671;-76
2020/12/25 10:54:33;;;;;;;5.18;4.68;;;3.50;99.90;;;;;;4988287;28;20238;-76
2020/12/25 10:57:00;;;;;;;5.90;4.85;;;3.50;99.90;;;;;;4989157;28;20262;-74
2020/12/25 10:59:26;;;;;;;38.30;20.70;;;3.40;99.90;;;;;;4989165;28;20659;-75
2020/12/25 11:01:52;;;;;;;36.63;20.10;;;3.40;99.90;;;;;;4986963;28;20213;-76
2020/12/25 11:04:19;;;;;;;19.13;12.38;;;3.40;99.90;;;;;;4988276;28;20222;-75
2020/12/25 11:06:45;;;;;;;20.85;14.85;;;3.30;99.90;;;;;;4988775;28;20265;-76
2020/12/25 11:09:12;;;;;;;5.80;4.95;;;3.30;99.90;;;;;;4988137;28;20313;-75
2020/12/25 11:11:40;;;;;;;5.47;4.97;;;3.20;99.90;;;;;;4987318;28;20206;-75
2020/12/25 11:14:07;;;;;;;6.25;5.38;;;3.20;99.90;;;;;;4987809;28;20706;-76
2020/12/25 11:16:35;;;;;;;5.72;5.05;;;3.20;99.90;;;;;;5006283;28;20210;-77
2020/12/25 11:19:02;;;;;;;6.15;5.55;;;3.20;99.90;;;;;;5007915;28;20214;-77
2020/12/25 11:21:30;;;;;;;6.50;5.22;;;3.20;99.90;;;;;;5007708;28;20210;-76
2020/12/25 11:23:58;;;;;;;11.15;5.50;;;3.20;99.90;;;;;;5006797;28;20234;-75
2020/12/25 11:26:26;;;;;;;7.50;4.28;;;3.20;99.90;;;;;;5006685;28;20245;-73
2020/12/25 11:28:55;;;;;;;5.40;4.70;;;3.10;99.90;;;;;;5007400;28;20199;-75
2020/12/25 11:31:23;;;;;;;6.20;4.82;;;3.00;99.90;;;;;;5007029;28;20225;-76
2020/12/25 11:33:50;;;;;;;4.90;4.32;;;3.00;99.90;;;;;;5006676;28;20644;-74
2020/12/25 11:36:18;;;;;;;5.82;5.18;;;3.00;99.90;;;;;;5006623;28;20202;-75
2020/12/25 11:38:44;;;;;;;7.85;4.72;;;3.10;99.90;;;;;;5006357;28;21014;-76
2020/12/25 11:41:12;;;;;;;7.47;4.72;;;3.10;99.90;;;;;;5007304;28;20279;-77
2020/12/25 11:43:39;;;;;;;6.78;4.63;;;3.10;99.90;;;;;;5007004;28;20233;-75
2020/12/25 11:46:06;;;;;;;6.28;4.72;;;3.00;99.90;;;;;;5007275;28;20726;-75
2020/12/25 11:48:33;;;;;;;7.20;5.88;;;3.00;99.90;;;;;;5007429;28;20647;-76
2020/12/25 11:51:00;;;;;;;5.30;4.45;;;2.90;99.90;;;;;;5007057;28;20202;-76
2020/12/25 11:53:26;;;;;;;5.85;4.97;;;2.90;99.90;;;;;;5007299;28;20312;-76
2020/12/25 11:55:52;;;;;;;5.30;4.80;;;2.90;99.90;;;;;;5007883;28;20206;-76
2020/12/25 11:58:19;;;;;;;7.65;4.57;;;2.90;99.90;;;;;;5007566;28;20209;-75
2020/12/25 12:00:45;;;;;;;6.43;4.80;;;3.10;99.90;;;;;;5007276;28;20686;-74
2020/12/25 12:03:12;;;;;;;5.10;4.28;;;3.20;99.90;;;;;;5007094;28;20916;-76
2020/12/25 12:05:41;;;;;;;4.70;4.30;;;3.30;99.90;;;;;;5007428;28;20202;-76
2020/12/25 12:08:07;;;;;;;6.60;4.47;;;3.30;99.90;;;;;;5006818;28;20206;-77
2020/12/25 12:10:34;;;;;;;5.20;4.65;;;3.40;99.90;;;;;;5006784;28;20214;-76
2020/12/25 12:13:00;;;;;;;6.75;4.55;;;3.40;99.90;;;;;;5006801;28;20223;-76
2020/12/25 12:15:26;;;;;;;6.90;4.20;;;3.30;99.90;;;;;;5006903;28;20198;-76
2020/12/25 12:17:52;;;;;;;5.45;4.95;;;3.20;99.90;;;;;;5007198;28;20210;-75
2020/12/25 12:20:19;;;;;;;5.78;4.30;;;3.20;99.90;;;;;;5006213;28;20863;-76
2020/12/25 12:22:45;;;;;;;7.57;4.60;;;3.20;99.90;;;;;;5008174;28;20237;-77
2020/12/25 12:25:12;;;;;;;5.43;4.47;;;3.20;99.90;;;;;;5013998;28;20198;-75
2020/12/25 12:27:39;;;;;;;7.10;4.50;;;3.20;99.90;;;;;;5013668;28;20198;-76
2020/12/25 12:30:06;;;;;;;5.57;4.20;;;3.20;99.90;;;;;;5014193;28;20230;-74
2020/12/25 12:32:32;;;;;;;6.00;5.03;;;3.20;99.90;;;;;;5013354;28;20201;-75
2020/12/25 12:34:59;;;;;;;5.20;4.68;;;3.10;99.90;;;;;;5014166;28;20202;-75
2020/12/25 12:37:26;;;;;;;9.20;5.13;;;3.00;99.90;;;;;;5013975;28;20202;-77
2020/12/25 12:39:52;;;;;;;7.68;5.10;;;3.00;99.90;;;;;;5014335;28;20567;-77
2020/12/25 12:42:18;;;;;;;5.13;4.55;;;3.00;99.90;;;;;;5013823;28;20221;-77
2020/12/25 12:44:45;;;;;;;5.97;4.35;;;2.90;99.90;;;;;;5014452;28;20305;-76
2020/12/25 12:47:11;;;;;;;6.40;5.18;;;2.90;99.90;;;;;;5014610;28;20202;-76
2020/12/25 12:49:37;;;;;;;6.88;4.95;;;2.80;99.90;;;;;;5014394;28;20561;-75
2020/12/25 12:52:03;;;;;;;5.93;4.13;;;2.60;99.90;;;;;;5014159;28;20206;-75
2020/12/25 12:54:30;;;;;;;4.45;3.85;;;2.50;99.90;;;;;;5013960;28;20233;-76
2020/12/25 12:56:56;;;;;;;5.13;4.10;;;2.40;99.90;;;;;;5014642;28;20206;-76